createdAt,value
2022-09-06T00:02:01.699Z,93.38
2022-09-06T00:04:29.495Z,87.20
2022-09-06T00:06:57.268Z,93.70
2022-09-06T00:09:25.218Z,90.40
2022-09-06T00:11:54.385Z,94.38
2022-09-06T00:14:22.177Z,108.20
2022-09-06T00:16:50.247Z,104.35
2022-09-06T00:19:17.912Z,99.00
2022-09-06T00:21:45.585Z,103.90
2022-09-06T00:24:13.318Z,107.00
2022-09-06T00:26:41.100Z,87.95
2022-09-06T00:29:10.167Z,93.75
2022-09-06T00:31:37.811Z,88.90
2022-09-06T00:34:05.585Z,96.82
2022-09-06T00:36:33.311Z,93.78
2022-09-06T00:39:01.028Z,94.85
2022-09-06T00:41:28.976Z,92.10
2022-09-06T00:43:56.733Z,96.00
2022-09-06T00:46:30.111Z,101.30
2022-09-06T00:49:02.703Z,104.78
2022-09-06T00:51:33.654Z,103.28
2022-09-06T00:54:04.025Z,117.40
2022-09-06T00:56:33.947Z,127.45
2022-09-06T00:59:02.428Z,129.48
2022-09-06T01:01:31.679Z,127.80
2022-09-06T01:03:59.737Z,119.80
2022-09-06T01:06:39.669Z,117.32
2022-09-06T01:09:16.901Z,121.47
2022-09-06T01:12:05.995Z,121.18
2022-09-06T01:14:45.995Z,116.45
2022-09-06T01:17:27.076Z,131.02
2022-09-06T01:20:33.497Z,136.95
2022-09-06T01:23:19.470Z,135.50
2022-09-06T01:26:00.292Z,138.55
2022-09-06T01:28:33.845Z,133.52
2022-09-06T01:31:12.549Z,141.20
2022-09-06T01:33:49.555Z,133.95
2022-09-06T01:36:20.746Z,148.73
2022-09-06T01:38:48.408Z,144.43
2022-09-06T01:41:16.072Z,145.07
2022-09-06T01:43:49.305Z,140.93
2022-09-06T01:46:23.351Z,145.93
2022-09-06T01:49:03.604Z,158.52
2022-09-06T01:51:38.814Z,146.68
2022-09-06T01:54:26.158Z,159.57
2022-09-06T01:57:09.814Z,143.85
2022-09-06T01:59:58.603Z,135.18
2022-09-06T02:02:34.599Z,139.07
2022-09-06T02:05:07.427Z,143.57
2022-09-06T02:07:37.973Z,133.00
2022-09-06T02:10:10.153Z,143.43
2022-09-06T02:12:42.172Z,158.50
2022-09-06T02:15:15.313Z,140.98
2022-09-06T02:17:48.635Z,157.73
2022-09-06T02:20:21.491Z,157.88
2022-09-06T02:22:52.113Z,154.93
2022-09-06T02:25:25.499Z,144.02
2022-09-06T02:27:53.780Z,152.85
2022-09-06T02:30:22.877Z,161.18
2022-09-06T02:32:55.415Z,147.82
2022-09-06T02:35:23.434Z,152.35
2022-09-06T02:37:52.088Z,160.23
2022-09-06T02:40:20.332Z,151.50
2022-09-06T02:42:48.013Z,156.10
2022-09-06T02:45:15.883Z,154.15
2022-09-06T02:47:44.856Z,149.15
2022-09-06T02:50:13.209Z,150.27
2022-09-06T02:52:40.905Z,149.73
2022-09-06T02:55:09.325Z,146.73
2022-09-06T02:57:37.009Z,162.52
2022-09-06T03:00:05.711Z,168.00
2022-09-06T03:02:33.502Z,159.07
2022-09-06T03:05:02.933Z,157.43
2022-09-06T03:07:30.716Z,157.93
2022-09-06T03:09:58.424Z,171.90
2022-09-06T03:12:26.088Z,167.05
2022-09-06T03:14:55.095Z,169.15
2022-09-06T03:17:23.059Z,170.88
2022-09-06T03:19:50.788Z,184.60
2022-09-06T03:22:19.800Z,199.45
2022-09-06T03:24:48.887Z,200.30
2022-09-06T03:27:16.531Z,203.80
2022-09-06T03:29:44.185Z,226.50
2022-09-06T03:32:11.882Z,260.00
2022-09-06T03:34:39.589Z,264.88
2022-09-06T03:37:07.301Z,275.98
2022-09-06T03:39:36.328Z,294.30
2022-09-06T03:42:04.267Z,324.05
2022-09-06T03:44:31.930Z,331.83
2022-09-06T03:46:59.671Z,344.40
2022-09-06T03:49:27.408Z,331.92
2022-09-06T03:51:55.155Z,344.55
2022-09-06T03:54:24.448Z,341.70
2022-09-06T03:56:53.465Z,319.38
2022-09-06T03:59:21.138Z,332.92
2022-09-06T04:01:48.801Z,314.30
2022-09-06T04:04:16.475Z,320.23
2022-09-06T04:06:44.161Z,311.38
2022-09-06T04:09:11.839Z,311.58
2022-09-06T04:11:39.563Z,304.55
2022-09-06T04:14:08.571Z,300.88
2022-09-06T04:16:36.305Z,297.45
2022-09-06T04:19:04.518Z,317.17
2022-09-06T04:21:32.761Z,302.90
2022-09-06T04:24:00.476Z,287.70
2022-09-06T04:26:28.164Z,311.88
2022-09-06T04:28:55.896Z,301.83
2022-09-06T04:31:24.898Z,298.33
2022-09-06T04:33:53.084Z,302.15
2022-09-06T04:36:20.745Z,294.15
2022-09-06T04:38:48.423Z,298.42
2022-09-06T04:41:18.652Z,275.58
2022-09-06T04:43:46.437Z,285.20
2022-09-06T04:46:25.774Z,302.30
2022-09-06T04:48:54.706Z,286.83
2022-09-06T04:51:23.263Z,295.50
2022-09-06T04:53:51.385Z,295.95
2022-09-06T04:56:20.898Z,278.38
2022-09-06T04:58:50.300Z,284.42
2022-09-06T05:01:18.461Z,282.63
2022-09-06T05:03:47.624Z,287.65
2022-09-06T05:06:21.652Z,261.80
2022-09-06T05:08:49.969Z,273.02
2022-09-06T05:11:18.413Z,284.05
2022-09-06T05:13:47.464Z,279.85
2022-09-06T05:16:15.363Z,276.45
2022-09-06T05:18:44.196Z,284.25
2022-09-06T05:21:13.228Z,292.02
2022-09-06T05:23:40.991Z,297.33
2022-09-06T05:26:09.154Z,301.77
2022-09-06T05:28:36.897Z,310.70
2022-09-06T05:31:08.993Z,313.30
2022-09-06T05:33:36.629Z,317.70
2022-09-06T05:36:04.545Z,321.85
2022-09-06T05:38:33.985Z,312.25
2022-09-06T05:41:01.958Z,316.52
2022-09-06T05:43:29.685Z,321.75
2022-09-06T05:45:57.425Z,319.90
2022-09-06T05:48:25.249Z,312.90
2022-09-06T05:51:01.215Z,312.70
2022-09-06T05:53:36.600Z,307.77
2022-09-06T05:56:06.039Z,301.08
2022-09-06T05:58:34.328Z,313.90
2022-09-06T06:01:09.581Z,305.20
2022-09-06T06:03:37.328Z,303.38
2022-09-06T06:06:05.173Z,307.02
2022-09-06T06:08:32.897Z,286.23
2022-09-06T06:11:02.262Z,283.02
2022-09-06T06:13:34.714Z,268.38
2022-09-06T06:16:03.163Z,252.18
2022-09-06T06:18:30.884Z,252.82
2022-09-06T06:21:09.357Z,239.63
2022-09-06T06:23:37.364Z,222.23
2022-09-06T06:26:07.256Z,225.68
2022-09-06T06:28:35.611Z,214.07
2022-09-06T06:31:03.440Z,224.05
2022-09-06T06:33:31.179Z,214.52
2022-09-06T06:36:00.555Z,215.68
2022-09-06T06:38:32.745Z,213.27
2022-09-06T06:41:05.839Z,198.68
2022-09-06T06:43:37.701Z,210.65
2022-09-06T06:46:05.863Z,198.25
2022-09-06T06:48:33.659Z,192.05
2022-09-06T06:51:01.747Z,191.75
2022-09-06T06:53:29.491Z,192.85
2022-09-06T06:55:57.144Z,187.95
2022-09-06T06:58:25.000Z,183.05
2022-09-06T07:00:54.370Z,201.25
2022-09-06T07:03:22.069Z,186.10
2022-09-06T07:08:38.197Z,184.60
2022-09-06T07:11:06.781Z,186.80
2022-09-06T07:13:34.867Z,178.65
2022-09-06T07:16:12.210Z,170.27
2022-09-06T07:18:42.058Z,151.23
2022-09-06T07:24:07.922Z,142.95
2022-09-06T07:26:37.533Z,138.77
2022-09-06T07:29:06.639Z,144.23
2022-09-06T07:34:26.303Z,140.43
2022-09-06T07:36:54.458Z,135.68
2022-09-06T07:39:22.550Z,135.48
2022-09-06T07:41:50.251Z,129.80
2022-09-06T07:44:17.869Z,121.60
2022-09-06T07:46:47.158Z,107.95
2022-09-06T07:49:14.920Z,101.00
2022-09-06T07:51:42.587Z,89.70
2022-09-06T07:54:29.906Z,94.07
2022-09-06T07:56:58.468Z,90.68
2022-09-06T07:59:27.410Z,94.25
2022-09-06T08:01:56.462Z,101.82
2022-09-06T08:04:24.243Z,95.55
2022-09-06T08:09:41.059Z,90.55
2022-09-06T08:12:09.635Z,87.97
2022-09-06T08:14:37.297Z,88.63
2022-09-06T08:17:06.449Z,84.70
2022-09-06T08:19:34.448Z,87.07
2022-09-06T08:22:02.275Z,76.97
2022-09-06T08:24:30.357Z,79.78
2022-09-06T08:26:58.070Z,80.45
2022-09-06T08:29:25.940Z,83.32
2022-09-06T08:31:54.028Z,82.65
2022-09-06T08:34:23.096Z,88.38
2022-09-06T08:36:50.816Z,85.85
2022-09-06T08:39:19.651Z,89.30
2022-09-06T08:41:52.813Z,89.53
2022-09-06T08:47:13.811Z,83.28
2022-09-06T08:49:44.905Z,86.20
2022-09-06T08:52:32.645Z,90.32
2022-09-06T08:55:14.151Z,85.70
2022-09-06T08:57:55.382Z,76.07
2022-09-06T09:00:23.626Z,67.78
2022-09-06T09:02:56.114Z,66.22
2022-09-06T09:05:31.176Z,66.43
2022-09-06T09:08:08.714Z,59.50
2022-09-06T09:10:43.029Z,60.38
2022-09-06T09:13:23.213Z,64.28
2022-09-06T09:15:50.976Z,57.38
2022-09-06T09:18:23.777Z,56.90
2022-09-06T09:20:53.404Z,51.53
2022-09-06T09:23:21.104Z,47.00
2022-09-06T09:25:52.561Z,44.50
2022-09-06T09:28:23.570Z,43.95
2022-09-06T09:30:53.609Z,40.80
2022-09-06T09:33:30.458Z,41.50
2022-09-06T09:36:02.005Z,40.38
2022-09-06T09:38:33.683Z,38.95
2022-09-06T09:41:03.682Z,37.85
2022-09-06T09:43:32.611Z,36.95
2022-09-06T09:46:30.680Z,38.47
2022-09-06T09:49:04.807Z,31.85
2022-09-06T09:51:35.803Z,30.42
2022-09-06T09:54:05.415Z,30.10
2022-09-06T09:56:44.575Z,30.08
2022-09-06T09:59:27.687Z,32.13
2022-09-06T10:01:59.892Z,31.42
2022-09-06T10:04:49.264Z,31.33
2022-09-06T10:07:20.743Z,29.63
2022-09-06T10:09:50.100Z,32.45
2022-09-06T10:12:20.061Z,29.35
2022-09-06T10:14:49.869Z,28.90
2022-09-06T10:17:23.184Z,29.98
2022-09-06T10:19:50.859Z,26.92
2022-09-06T10:22:28.325Z,24.77
2022-09-06T10:25:20.493Z,24.23
2022-09-06T10:28:10.844Z,25.63
2022-09-06T10:30:44.481Z,28.35
2022-09-06T10:33:26.262Z,27.48
2022-09-06T10:35:57.831Z,27.63
2022-09-06T10:38:42.654Z,28.05
2022-09-06T10:41:30.763Z,28.42
2022-09-06T10:44:06.255Z,29.27
2022-09-06T10:46:36.016Z,32.70
2022-09-06T10:49:03.768Z,34.22
2022-09-06T10:51:38.772Z,34.53
2022-09-06T10:54:10.906Z,33.97
2022-09-06T10:56:44.341Z,36.33
2022-09-06T11:02:13.903Z,35.63
2022-09-06T11:07:32.139Z,32.28
2022-09-06T11:10:05.945Z,32.03
2022-09-06T11:12:40.179Z,32.25
2022-09-06T11:15:12.591Z,30.63
2022-09-06T11:17:46.993Z,30.45
2022-09-06T11:20:21.117Z,33.25
2022-09-06T11:23:21.216Z,33.00
2022-09-06T11:26:05.478Z,26.02
2022-09-06T11:28:38.306Z,28.48
2022-09-06T11:31:07.547Z,26.27
2022-09-06T11:33:39.696Z,21.77
2022-09-06T11:36:19.761Z,15.77
2022-09-06T11:38:56.266Z,13.40
2022-09-06T11:41:31.177Z,11.55
2022-09-06T11:43:59.637Z,11.07
2022-09-06T11:47:01.177Z,12.20
2022-09-06T11:49:32.604Z,11.95
2022-09-06T11:52:00.369Z,11.02
2022-09-06T11:54:42.876Z,10.32
2022-09-06T11:57:16.441Z,11.48
2022-09-06T11:59:55.578Z,11.57
2022-09-06T12:02:36.655Z,11.20
2022-09-06T12:05:14.345Z,11.38
2022-09-06T12:08:30.147Z,11.10
2022-09-06T12:11:01.057Z,11.25
2022-09-06T12:13:55.347Z,10.98
2022-09-06T12:16:23.953Z,10.95
2022-09-06T12:19:10.407Z,11.10
2022-09-06T12:21:45.983Z,10.73
2022-09-06T12:24:51.091Z,9.65
2022-09-06T12:27:20.202Z,10.55
2022-09-06T12:29:58.062Z,9.85
2022-09-06T12:32:31.699Z,9.93
2022-09-06T12:37:56.360Z,10.70
2022-09-06T12:40:26.316Z,10.23
2022-09-06T12:42:54.977Z,10.18
2022-09-06T12:45:27.576Z,11.18
2022-09-06T12:48:06.354Z,10.40
2022-09-06T12:50:34.154Z,10.48
2022-09-06T12:53:03.661Z,10.18
2022-09-06T12:55:33.626Z,10.18
2022-09-06T12:58:04.896Z,10.95
2022-09-06T13:00:37.510Z,10.32
2022-09-06T13:03:15.778Z,10.52
2022-09-06T13:05:45.626Z,11.38
2022-09-06T13:08:19.465Z,10.63
2022-09-06T13:10:48.832Z,9.27
2022-09-06T13:13:22.851Z,8.45
2022-09-06T13:15:52.809Z,8.50
2022-09-06T13:18:23.432Z,8.15
2022-09-06T13:21:02.435Z,9.80
2022-09-06T13:23:31.033Z,10.00
2022-09-06T13:25:58.935Z,9.38
2022-09-06T13:28:28.745Z,9.10
2022-09-06T13:31:07.959Z,8.98
2022-09-06T13:33:37.605Z,8.13
2022-09-06T13:36:09.338Z,7.60
2022-09-06T13:38:41.279Z,6.93
2022-09-06T13:41:46.638Z,6.63
2022-09-06T13:44:31.038Z,7.40
2022-09-06T13:46:59.011Z,6.90
2022-09-06T13:49:27.201Z,7.05
2022-09-06T13:51:56.312Z,6.97
2022-09-06T13:54:23.950Z,7.07
2022-09-06T13:56:51.823Z,7.18
2022-09-06T13:59:20.360Z,7.55
2022-09-06T14:01:57.113Z,6.97
2022-09-06T14:04:25.482Z,7.03
2022-09-06T14:06:53.991Z,7.75
2022-09-06T14:09:21.833Z,7.55
2022-09-06T14:11:49.548Z,7.25
2022-09-06T14:14:17.673Z,7.28
2022-09-06T14:16:45.591Z,7.35
2022-09-06T14:19:15.235Z,7.65
2022-09-06T14:21:43.216Z,7.38
2022-09-06T14:24:10.967Z,8.40
2022-09-06T14:26:39.373Z,7.60
2022-09-06T14:29:08.154Z,10.65
2022-09-06T14:31:35.899Z,9.05
2022-09-06T14:34:04.201Z,12.45
2022-09-06T14:36:34.168Z,11.02
2022-09-06T14:39:02.798Z,10.07
2022-09-06T14:41:30.545Z,13.23
2022-09-06T14:43:59.526Z,9.70
2022-09-06T14:46:28.841Z,11.68
2022-09-06T14:49:00.972Z,10.90
2022-09-06T14:51:29.598Z,10.23
2022-09-06T14:54:01.001Z,11.85
2022-09-06T14:56:30.245Z,12.40
2022-09-06T14:58:59.712Z,13.45
2022-09-06T15:01:31.105Z,14.05
2022-09-06T15:04:03.583Z,13.73
2022-09-06T15:06:33.526Z,14.32
2022-09-06T15:09:02.736Z,14.57
2022-09-06T15:11:34.661Z,14.73
2022-09-06T15:14:04.058Z,13.70
2022-09-06T15:16:32.732Z,13.48
2022-09-06T15:19:02.187Z,14.13
2022-09-06T15:21:30.275Z,17.05
2022-09-06T15:23:58.780Z,20.92
2022-09-06T15:26:28.173Z,22.48
2022-09-06T15:28:56.393Z,31.77
2022-09-06T15:31:24.320Z,38.42
2022-09-06T15:33:53.572Z,45.95
2022-09-06T15:36:21.878Z,46.42
2022-09-06T15:38:52.239Z,49.92
2022-09-06T15:41:23.403Z,54.42
2022-09-06T15:43:56.635Z,51.35
2022-09-06T15:46:42.834Z,52.38
2022-09-06T15:49:12.742Z,54.47
2022-09-06T15:51:42.135Z,52.08
2022-09-06T15:54:11.768Z,54.22
2022-09-06T15:56:39.610Z,57.45
2022-09-06T15:59:09.154Z,54.50
2022-09-06T16:01:37.577Z,53.08
2022-09-06T16:04:06.619Z,53.88
2022-09-06T16:06:37.097Z,58.22
2022-09-06T16:09:07.511Z,59.42
2022-09-06T16:11:36.715Z,55.38
2022-09-06T16:14:06.225Z,61.38
2022-09-06T16:16:36.025Z,68.78
2022-09-06T16:19:04.086Z,67.50
2022-09-06T16:21:33.423Z,70.38
2022-09-06T16:24:02.961Z,72.82
2022-09-06T16:26:33.152Z,75.05
2022-09-06T16:29:03.313Z,81.50
2022-09-06T16:31:32.839Z,76.97
2022-09-06T16:34:03.624Z,71.43
2022-09-06T16:36:31.748Z,71.57
2022-09-06T16:38:59.595Z,75.63
2022-09-06T16:41:32.143Z,73.60
2022-09-06T16:44:00.018Z,79.13
2022-09-06T16:46:29.317Z,85.72
2022-09-06T16:49:00.036Z,86.30
2022-09-06T16:51:31.099Z,104.95
2022-09-06T16:54:00.269Z,113.65
2022-09-06T16:56:29.235Z,126.28
2022-09-06T16:58:58.897Z,129.55
2022-09-06T17:01:28.344Z,141.27
2022-09-06T17:03:57.349Z,161.95
2022-09-06T17:06:25.396Z,176.55
2022-09-06T17:08:58.309Z,201.30
2022-09-06T17:11:27.181Z,239.23
2022-09-06T17:13:56.188Z,258.83
2022-09-06T17:16:41.993Z,286.90
2022-09-06T17:19:10.268Z,334.20
2022-09-06T17:21:39.053Z,349.70
2022-09-06T17:24:09.555Z,388.15
2022-09-06T17:26:39.170Z,365.85
2022-09-06T17:29:07.312Z,373.20
2022-09-06T17:31:35.587Z,371.00
2022-09-06T17:34:03.688Z,391.45
2022-09-06T17:36:33.301Z,390.63
2022-09-06T17:39:02.778Z,390.58
2022-09-06T17:41:36.530Z,388.48
2022-09-06T17:44:05.541Z,378.50
2022-09-06T17:46:33.732Z,375.83
2022-09-06T17:49:01.518Z,385.20
2022-09-06T17:51:29.546Z,377.08
2022-09-06T17:53:57.308Z,395.58
2022-09-06T17:56:25.572Z,375.85
2022-09-06T17:58:56.373Z,381.05
2022-09-06T18:01:26.096Z,371.63
2022-09-06T18:03:54.476Z,380.67
2022-09-06T18:06:24.108Z,382.20
2022-09-06T18:08:53.433Z,368.73
2022-09-06T18:11:23.399Z,354.92
2022-09-06T18:13:58.034Z,389.45
2022-09-06T18:16:26.818Z,371.15
2022-09-06T18:18:56.753Z,356.08
2022-09-06T18:21:26.559Z,358.05
2022-09-06T18:23:55.218Z,357.08
2022-09-06T18:26:23.264Z,352.92
2022-09-06T18:28:52.900Z,343.27
2022-09-06T18:31:23.918Z,328.75
2022-09-06T18:33:51.992Z,331.20
2022-09-06T18:36:20.404Z,330.38
2022-09-06T18:38:48.254Z,329.75
2022-09-06T18:41:31.295Z,327.75
2022-09-06T18:44:02.417Z,323.35
2022-09-06T18:46:32.568Z,335.73
2022-09-06T18:49:00.756Z,321.33
2022-09-06T18:51:29.213Z,326.75
2022-09-06T18:53:59.221Z,297.40
2022-09-06T18:56:27.509Z,266.30
2022-09-06T18:58:58.239Z,259.10
2022-09-06T19:01:28.255Z,222.43
2022-09-06T19:03:58.950Z,222.52
2022-09-06T19:06:28.562Z,210.38
2022-09-06T19:08:59.744Z,198.25
2022-09-06T19:11:27.950Z,185.77
2022-09-06T19:13:57.182Z,185.45
2022-09-06T19:16:26.687Z,183.65
2022-09-06T19:18:56.037Z,182.35
2022-09-06T19:21:27.444Z,176.32
2022-09-06T19:23:57.868Z,179.65
2022-09-06T19:26:27.025Z,170.48
2022-09-06T19:28:56.690Z,180.85
2022-09-06T19:31:26.861Z,172.10
2022-09-06T19:33:55.586Z,152.20
2022-09-06T19:36:26.422Z,145.68
2022-09-06T19:39:03.729Z,139.30
2022-09-06T19:41:34.011Z,124.80
2022-09-06T19:44:05.285Z,125.97
2022-09-06T19:46:33.533Z,115.65
2022-09-06T19:49:02.197Z,114.78
2022-09-06T19:51:32.964Z,116.15
2022-09-06T19:54:01.063Z,105.28
2022-09-06T19:56:31.734Z,110.32
2022-09-06T19:59:01.700Z,107.07
2022-09-06T20:01:31.440Z,106.30
2022-09-06T20:04:00.588Z,109.97
2022-09-06T20:06:28.458Z,103.05
2022-09-06T20:08:59.432Z,108.07
2022-09-06T20:11:29.748Z,103.50
2022-09-06T20:13:58.067Z,105.10
2022-09-06T20:16:26.544Z,105.10
2022-09-06T20:18:56.170Z,105.55
2022-09-06T20:21:23.973Z,108.45
2022-09-06T20:23:54.227Z,105.43
2022-09-06T20:26:24.999Z,106.20
2022-09-06T20:28:56.674Z,106.72
2022-09-06T20:31:24.750Z,104.82
2022-09-06T20:33:53.078Z,98.93
2022-09-06T20:36:21.562Z,106.38
2022-09-06T20:38:50.038Z,99.38
2022-09-06T20:41:19.289Z,105.10
2022-09-06T20:43:51.841Z,104.82
2022-09-06T20:46:21.573Z,106.65
2022-09-06T20:48:49.864Z,104.07
2022-09-06T20:51:19.743Z,97.35
2022-09-06T20:53:49.111Z,107.13
2022-09-06T20:56:18.585Z,100.65
2022-09-06T20:58:50.689Z,108.15
2022-09-06T21:01:22.567Z,102.65
2022-09-06T21:03:52.381Z,101.88
2022-09-06T21:06:21.359Z,102.90
2022-09-06T21:08:49.621Z,104.97
2022-09-06T21:11:18.014Z,97.80
2022-09-06T21:13:51.307Z,97.57
2022-09-06T21:16:24.325Z,92.32
2022-09-06T21:18:52.657Z,94.40
2022-09-06T21:21:20.472Z,97.95
2022-09-06T21:23:48.292Z,98.25
2022-09-06T21:26:17.136Z,92.65
2022-09-06T21:28:46.384Z,95.35
2022-09-06T21:31:18.664Z,90.85
2022-09-06T21:33:48.026Z,87.95
2022-09-06T21:36:18.217Z,88.72
2022-09-06T21:38:47.567Z,95.15
2022-09-06T21:41:17.684Z,85.07
2022-09-06T21:43:46.107Z,92.68
2022-09-06T21:46:17.124Z,93.95
2022-09-06T21:48:46.771Z,94.45
2022-09-06T21:51:16.272Z,93.47
2022-09-06T21:53:45.506Z,97.53
2022-09-06T21:56:13.760Z,93.65
2022-09-06T21:58:41.602Z,93.88
2022-09-06T22:01:09.742Z,95.60
2022-09-06T22:03:40.088Z,92.85
2022-09-06T22:06:12.073Z,90.53
2022-09-06T22:08:42.038Z,99.13
2022-09-06T22:11:11.355Z,102.20
2022-09-06T22:13:39.595Z,104.10
2022-09-06T22:16:08.335Z,107.00
2022-09-06T22:18:36.641Z,109.07
2022-09-06T22:21:07.600Z,106.85
2022-09-06T22:23:35.703Z,113.97
2022-09-06T22:26:05.645Z,111.85
2022-09-06T22:28:34.105Z,120.25
2022-09-06T22:31:01.980Z,116.90
2022-09-06T22:33:29.812Z,117.50
2022-09-06T22:35:59.770Z,123.60
2022-09-06T22:38:29.369Z,122.72
2022-09-06T22:40:58.424Z,126.38
2022-09-06T22:43:26.838Z,123.28
2022-09-06T22:45:55.046Z,119.90
2022-09-06T22:48:22.944Z,131.13
2022-09-06T22:50:50.723Z,132.57
2022-09-06T22:53:18.977Z,130.48
2022-09-06T22:55:49.331Z,134.48
2022-09-06T22:58:17.233Z,131.38
2022-09-06T23:00:45.369Z,132.00
2022-09-06T23:03:13.413Z,126.60
2022-09-06T23:05:41.265Z,129.88
2022-09-06T23:08:09.043Z,130.50
2022-09-06T23:10:41.602Z,126.13
2022-09-06T23:13:11.425Z,123.90
2022-09-06T23:15:41.134Z,127.20
2022-09-06T23:18:09.365Z,130.00
2022-09-06T23:20:37.785Z,128.05
2022-09-06T23:23:05.659Z,126.22
2022-09-06T23:25:37.164Z,126.30
2022-09-06T23:28:05.023Z,124.80
2022-09-06T23:30:37.490Z,118.47
2022-09-06T23:33:05.753Z,127.20
2022-09-06T23:35:33.937Z,119.25
2022-09-06T23:38:01.663Z,126.07
2022-09-06T23:40:29.507Z,121.90
2022-09-06T23:42:59.765Z,120.07
2022-09-06T23:45:27.554Z,122.63
2022-09-06T23:47:56.713Z,120.90
2022-09-06T23:50:24.471Z,121.60
2022-09-06T23:52:52.197Z,121.03
2022-09-06T23:55:20.005Z,125.53
2022-09-06T23:57:47.757Z,130.52
